sensor_id;sensor_type;location;lat;lon;timestamp;temperature;humidity
25058;DHT22;13057;50.978;11.034;2023-04-24T00:01:48;13.20;99.90
25058;DHT22;13057;50.978;11.034;2023-04-24T00:04:14;13.20;99.90
25058;DHT22;13057;50.978;11.034;2023-04-24T00:06:42;13.20;99.90
25058;DHT22;13057;50.978;11.034;2023-04-24T00:09:09;13.20;99.90
25058;DHT22;13057;50.978;11.034;2023-04-24T00:11:36;13.20;99.90
25058;DHT22;13057;50.978;11.034;2023-04-24T00:14:02;13.10;99.90
25058;DHT22;13057;50.978;11.034;2023-04-24T00:16:28;13.10;99.90
25058;DHT22;13057;50.978;11.034;2023-04-24T00:18:55;13.10;99.90
25058;DHT22;13057;50.978;11.034;2023-04-24T00:21:24;13.10;99.90
25058;DHT22;13057;50.978;11.034;2023-04-24T00:23:51;13.10;99.90
25058;DHT22;13057;50.978;11.034;2023-04-24T00:26:16;13.00;99.90
25058;DHT22;13057;50.978;11.034;2023-04-24T00:28:42;13.00;99.90
25058;DHT22;13057;50.978;11.034;2023-04-24T00:31:08;13.00;99.90
25058;DHT22;13057;50.978;11.034;2023-04-24T00:33:34;12.90;99.90
25058;DHT22;13057;50.978;11.034;2023-04-24T00:36:00;12.90;99.90
25058;DHT22;13057;50.978;11.034;2023-04-24T00:38:26;12.90;99.90
25058;DHT22;13057;50.978;11.034;2023-04-24T00:40:52;12.90;99.90
25058;DHT22;13057;50.978;11.034;2023-04-24T00:43:20;12.90;99.90
25058;DHT22;13057;50.978;11.034;2023-04-24T00:45:46;12.80;99.90
25058;DHT22;13057;50.978;11.034;2023-04-24T00:48:12;12.80;99.90
25058;DHT22;13057;50.978;11.034;2023-04-24T00:50:39;12.80;99.90
25058;DHT22;13057;50.978;11.034;2023-04-24T00:53:05;12.80;99.90
25058;DHT22;13057;50.978;11.034;2023-04-24T00:55:32;12.70;99.90
25058;DHT22;13057;50.978;11.034;2023-04-24T00:57:58;12.70;99.90
25058;DHT22;13057;50.978;11.034;2023-04-24T01:00:24;12.70;99.90
25058;DHT22;13057;50.978;11.034;2023-04-24T01:02:51;12.70;99.90
25058;DHT22;13057;50.978;11.034;2023-04-24T01:05:18;12.60;99.90
25058;DHT22;13057;50.978;11.034;2023-04-24T01:07:45;12.70;99.90
25058;DHT22;13057;50.978;11.034;2023-04-24T01:10:14;12.70;99.90
25058;DHT22;13057;50.978;11.034;2023-04-24T01:12:41;12.70;99.90
25058;DHT22;13057;50.978;11.034;2023-04-24T01:15:07;12.60;99.90
25058;DHT22;13057;50.978;11.034;2023-04-24T01:17:33;12.70;99.90
25058;DHT22;13057;50.978;11.034;2023-04-24T01:20:00;12.70;99.90
25058;DHT22;13057;50.978;11.034;2023-04-24T01:22:26;12.70;99.90
25058;DHT22;13057;50.978;11.034;2023-04-24T01:24:53;12.70;99.90
25058;DHT22;13057;50.978;11.034;2023-04-24T01:27:19;12.70;99.90
25058;DHT22;13057;50.978;11.034;2023-04-24T01:29:46;12.70;99.90
25058;DHT22;13057;50.978;11.034;2023-04-24T01:32:14;12.70;99.90
25058;DHT22;13057;50.978;11.034;2023-04-24T01:34:41;12.70;99.90
25058;DHT22;13057;50.978;11.034;2023-04-24T01:37:07;12.70;99.90
25058;DHT22;13057;50.978;11.034;2023-04-24T01:39:33;12.70;99.90
25058;DHT22;13057;50.978;11.034;2023-04-24T01:42:00;12.70;99.90
25058;DHT22;13057;50.978;11.034;2023-04-24T01:44:27;12.70;99.90
25058;DHT22;13057;50.978;11.034;2023-04-24T01:46:54;12.70;99.90
25058;DHT22;13057;50.978;11.034;2023-04-24T01:49:21;12.70;99.90
25058;DHT22;13057;50.978;11.034;2023-04-24T01:51:47;12.70;99.90
25058;DHT22;13057;50.978;11.034;2023-04-24T01:54:13;12.70;99.90
25058;DHT22;13057;50.978;11.034;2023-04-24T01:56:42;12.70;99.90
25058;DHT22;13057;50.978;11.034;2023-04-24T01:59:11;12.70;99.90
25058;DHT22;13057;50.978;11.034;2023-04-24T02:01:37;12.70;99.90
25058;DHT22;13057;50.978;11.034;2023-04-24T02:04:06;12.70;99.90
25058;DHT22;13057;50.978;11.034;2023-04-24T02:06:32;12.70;99.90
25058;DHT22;13057;50.978;11.034;2023-04-24T02:08:59;12.70;99.90
25058;DHT22;13057;50.978;11.034;2023-04-24T02:11:25;12.70;99.90
25058;DHT22;13057;50.978;11.034;2023-04-24T02:13:52;12.70;99.90
25058;DHT22;13057;50.978;11.034;2023-04-24T02:16:17;12.70;99.90
25058;DHT22;13057;50.978;11.034;2023-04-24T02:18:44;12.60;99.90
25058;DHT22;13057;50.978;11.034;2023-04-24T02:21:10;12.60;99.90
25058;DHT22;13057;50.978;11.034;2023-04-24T02:23:36;12.60;99.90
25058;DHT22;13057;50.978;11.034;2023-04-24T02:26:01;12.60;99.90
25058;DHT22;13057;50.978;11.034;2023-04-24T02:28:28;12.60;99.90
25058;DHT22;13057;50.978;11.034;2023-04-24T02:30:53;12.60;99.90
25058;DHT22;13057;50.978;11.034;2023-04-24T02:33:19;12.50;99.90
25058;DHT22;13057;50.978;11.034;2023-04-24T02:35:45;12.50;99.90
25058;DHT22;13057;50.978;11.034;2023-04-24T02:38:11;12.50;99.90
25058;DHT22;13057;50.978;11.034;2023-04-24T02:40:37;12.50;99.90
25058;DHT22;13057;50.978;11.034;2023-04-24T02:43:03;12.50;99.90
25058;DHT22;13057;50.978;11.034;2023-04-24T02:45:28;12.40;99.90
25058;DHT22;13057;50.978;11.034;2023-04-24T02:47:55;12.40;99.90
25058;DHT22;13057;50.978;11.034;2023-04-24T02:50:20;12.40;99.90
25058;DHT22;13057;50.978;11.034;2023-04-24T02:52:46;12.40;99.90
25058;DHT22;13057;50.978;11.034;2023-04-24T02:55:13;12.40;99.90
25058;DHT22;13057;50.978;11.034;2023-04-24T02:57:39;12.40;99.90
25058;DHT22;13057;50.978;11.034;2023-04-24T03:00:05;12.40;99.90
25058;DHT22;13057;50.978;11.034;2023-04-24T03:02:32;12.40;99.90
25058;DHT22;13057;50.978;11.034;2023-04-24T03:04:59;12.40;99.90
25058;DHT22;13057;50.978;11.034;2023-04-24T03:07:25;12.30;99.90
25058;DHT22;13057;50.978;11.034;2023-04-24T03:09:51;12.30;99.90
25058;DHT22;13057;50.978;11.034;2023-04-24T03:12:17;12.30;99.90
25058;DHT22;13057;50.978;11.034;2023-04-24T03:14:44;12.30;99.90
25058;DHT22;13057;50.978;11.034;2023-04-24T03:17:10;12.30;99.90
25058;DHT22;13057;50.978;11.034;2023-04-24T03:19:36;12.30;99.90
25058;DHT22;13057;50.978;11.034;2023-04-24T03:22:02;12.30;99.90
25058;DHT22;13057;50.978;11.034;2023-04-24T03:24:28;12.20;99.90
25058;DHT22;13057;50.978;11.034;2023-04-24T03:26:54;12.30;99.90
25058;DHT22;13057;50.978;11.034;2023-04-24T03:29:22;12.30;99.90
25058;DHT22;13057;50.978;11.034;2023-04-24T03:31:48;12.30;99.90
25058;DHT22;13057;50.978;11.034;2023-04-24T03:34:14;12.20;99.90
25058;DHT22;13057;50.978;11.034;2023-04-24T03:36:40;12.30;99.90
25058;DHT22;13057;50.978;11.034;2023-04-24T03:39:05;12.30;99.90
25058;DHT22;13057;50.978;11.034;2023-04-24T03:41:32;12.20;99.90
25058;DHT22;13057;50.978;11.034;2023-04-24T03:43:58;12.20;99.90
25058;DHT22;13057;50.978;11.034;2023-04-24T03:46:23;12.20;99.90
25058;DHT22;13057;50.978;11.034;2023-04-24T03:48:49;12.30;99.90
25058;DHT22;13057;50.978;11.034;2023-04-24T03:51:15;12.30;99.90
25058;DHT22;13057;50.978;11.034;2023-04-24T03:53:41;12.30;99.90
25058;DHT22;13057;50.978;11.034;2023-04-24T03:56:07;12.30;99.90
25058;DHT22;13057;50.978;11.034;2023-04-24T03:58:33;12.30;99.90
25058;DHT22;13057;50.978;11.034;2023-04-24T04:00:58;12.30;99.90
25058;DHT22;13057;50.978;11.034;2023-04-24T04:03:24;12.30;99.90
25058;DHT22;13057;50.978;11.034;2023-04-24T04:05:51;12.30;99.90
25058;DHT22;13057;50.978;11.034;2023-04-24T04:08:16;12.30;99.90
25058;DHT22;13057;50.978;11.034;2023-04-24T04:10:42;12.30;99.90
25058;DHT22;13057;50.978;11.034;2023-04-24T04:13:08;12.30;99.90
25058;DHT22;13057;50.978;11.034;2023-04-24T04:15:34;12.30;99.90
25058;DHT22;13057;50.978;11.034;2023-04-24T04:18:00;12.30;99.90
25058;DHT22;13057;50.978;11.034;2023-04-24T04:20:26;12.30;99.90
25058;DHT22;13057;50.978;11.034;2023-04-24T04:22:52;12.30;99.90
25058;DHT22;13057;50.978;11.034;2023-04-24T04:25:17;12.30;99.90
25058;DHT22;13057;50.978;11.034;2023-04-24T04:27:46;12.30;99.90
25058;DHT22;13057;50.978;11.034;2023-04-24T04:30:14;12.30;99.90
25058;DHT22;13057;50.978;11.034;2023-04-24T04:32:40;12.30;99.90
25058;DHT22;13057;50.978;11.034;2023-04-24T04:35:06;12.30;99.90
25058;DHT22;13057;50.978;11.034;2023-04-24T04:37:32;12.30;99.90
25058;DHT22;13057;50.978;11.034;2023-04-24T04:39:59;12.30;99.90
25058;DHT22;13057;50.978;11.034;2023-04-24T04:42:26;12.30;99.90
25058;DHT22;13057;50.978;11.034;2023-04-24T04:44:53;12.30;99.90
25058;DHT22;13057;50.978;11.034;2023-04-24T04:47:21;12.30;99.90
25058;DHT22;13057;50.978;11.034;2023-04-24T04:49:49;12.40;99.90
25058;DHT22;13057;50.978;11.034;2023-04-24T04:52:16;12.30;99.90
25058;DHT22;13057;50.978;11.034;2023-04-24T04:54:43;12.40;99.90
25058;DHT22;13057;50.978;11.034;2023-04-24T04:57:10;12.40;99.90
25058;DHT22;13057;50.978;11.034;2023-04-24T04:59:35;12.40;99.90
25058;DHT22;13057;50.978;11.034;2023-04-24T05:02:02;12.40;99.90
25058;DHT22;13057;50.978;11.034;2023-04-24T05:04:28;12.50;99.90
25058;DHT22;13057;50.978;11.034;2023-04-24T05:06:54;12.50;99.90
25058;DHT22;13057;50.978;11.034;2023-04-24T05:09:20;12.50;99.90
25058;DHT22;13057;50.978;11.034;2023-04-24T05:11:46;12.50;99.90
25058;DHT22;13057;50.978;11.034;2023-04-24T05:14:11;12.50;99.90
25058;DHT22;13057;50.978;11.034;2023-04-24T05:16:38;12.50;99.90
25058;DHT22;13057;50.978;11.034;2023-04-24T05:19:05;12.50;99.90
25058;DHT22;13057;50.978;11.034;2023-04-24T05:21:31;12.50;99.90
25058;DHT22;13057;50.978;11.034;2023-04-24T05:24:04;12.50;99.90
25058;DHT22;13057;50.978;11.034;2023-04-24T05:26:30;12.50;99.90
25058;DHT22;13057;50.978;11.034;2023-04-24T05:28:56;12.60;99.90
25058;DHT22;13057;50.978;11.034;2023-04-24T05:31:22;12.60;99.90
25058;DHT22;13057;50.978;11.034;2023-04-24T05:33:48;12.60;99.90
25058;DHT22;13057;50.978;11.034;2023-04-24T05:36:13;12.60;99.90
25058;DHT22;13057;50.978;11.034;2023-04-24T05:38:40;12.60;99.90
25058;DHT22;13057;50.978;11.034;2023-04-24T05:41:06;12.60;99.90
25058;DHT22;13057;50.978;11.034;2023-04-24T05:43:31;12.70;99.90
25058;DHT22;13057;50.978;11.034;2023-04-24T05:45:58;12.70;99.90
25058;DHT22;13057;50.978;11.034;2023-04-24T05:48:26;12.70;99.90
25058;DHT22;13057;50.978;11.034;2023-04-24T05:50:52;12.70;99.90
25058;DHT22;13057;50.978;11.034;2023-04-24T05:53:19;12.80;99.90
25058;DHT22;13057;50.978;11.034;2023-04-24T05:55:45;12.80;99.90
25058;DHT22;13057;50.978;11.034;2023-04-24T05:58:11;12.90;99.90
25058;DHT22;13057;50.978;11.034;2023-04-24T06:00:38;12.90;99.90
25058;DHT22;13057;50.978;11.034;2023-04-24T06:03:07;12.90;99.90
25058;DHT22;13057;50.978;11.034;2023-04-24T06:05:33;12.90;99.90
25058;DHT22;13057;50.978;11.034;2023-04-24T06:08:00;13.00;99.90
25058;DHT22;13057;50.978;11.034;2023-04-24T06:10:26;13.00;99.90
25058;DHT22;13057;50.978;11.034;2023-04-24T06:12:52;13.00;99.90
25058;DHT22;13057;50.978;11.034;2023-04-24T06:15:21;13.10;99.90
25058;DHT22;13057;50.978;11.034;2023-04-24T06:17:47;13.00;99.90
25058;DHT22;13057;50.978;11.034;2023-04-24T06:20:13;13.00;99.90
25058;DHT22;13057;50.978;11.034;2023-04-24T06:22:39;13.00;99.90
25058;DHT22;13057;50.978;11.034;2023-04-24T06:25:06;13.10;99.90
25058;DHT22;13057;50.978;11.034;2023-04-24T06:27:33;13.10;99.90
25058;DHT22;13057;50.978;11.034;2023-04-24T06:29:58;13.10;99.90
25058;DHT22;13057;50.978;11.034;2023-04-24T06:32:24;13.20;99.90
25058;DHT22;13057;50.978;11.034;2023-04-24T06:34:52;13.20;99.90
25058;DHT22;13057;50.978;11.034;2023-04-24T06:37:19;13.20;99.90
25058;DHT22;13057;50.978;11.034;2023-04-24T06:39:46;13.20;99.90
25058;DHT22;13057;50.978;11.034;2023-04-24T06:42:12;13.20;99.90
25058;DHT22;13057;50.978;11.034;2023-04-24T06:44:38;13.20;99.90
25058;DHT22;13057;50.978;11.034;2023-04-24T06:47:07;13.30;99.90
25058;DHT22;13057;50.978;11.034;2023-04-24T06:49:35;13.30;99.90
25058;DHT22;13057;50.978;11.034;2023-04-24T06:52:01;13.20;99.90
25058;DHT22;13057;50.978;11.034;2023-04-24T06:54:27;13.20;99.90
25058;DHT22;13057;50.978;11.034;2023-04-24T06:56:54;13.30;99.90
25058;DHT22;13057;50.978;11.034;2023-04-24T06:59:20;13.20;99.90
25058;DHT22;13057;50.978;11.034;2023-04-24T07:01:46;13.30;99.90
25058;DHT22;13057;50.978;11.034;2023-04-24T07:04:11;13.30;99.90
25058;DHT22;13057;50.978;11.034;2023-04-24T07:06:38;13.30;99.90
25058;DHT22;13057;50.978;11.034;2023-04-24T07:09:04;13.20;99.90
25058;DHT22;13057;50.978;11.034;2023-04-24T07:11:31;13.10;99.90
25058;DHT22;13057;50.978;11.034;2023-04-24T07:13:57;13.20;99.90
25058;DHT22;13057;50.978;11.034;2023-04-24T07:16:22;13.30;99.90
25058;DHT22;13057;50.978;11.034;2023-04-24T07:18:48;13.40;99.90
25058;DHT22;13057;50.978;11.034;2023-04-24T07:21:14;13.30;99.90
25058;DHT22;13057;50.978;11.034;2023-04-24T07:23:40;13.30;99.90
25058;DHT22;13057;50.978;11.034;2023-04-24T07:26:06;13.30;99.90
25058;DHT22;13057;50.978;11.034;2023-04-24T07:28:33;13.30;99.90
25058;DHT22;13057;50.978;11.034;2023-04-24T07:30:58;13.30;99.90
25058;DHT22;13057;50.978;11.034;2023-04-24T07:33:26;13.40;99.90
25058;DHT22;13057;50.978;11.034;2023-04-24T07:35:52;13.40;99.90
25058;DHT22;13057;50.978;11.034;2023-04-24T07:38:18;13.40;99.90
25058;DHT22;13057;50.978;11.034;2023-04-24T07:40:47;13.40;99.90
25058;DHT22;13057;50.978;11.034;2023-04-24T07:43:13;13.50;99.90
25058;DHT22;13057;50.978;11.034;2023-04-24T07:45:39;13.40;99.90
25058;DHT22;13057;50.978;11.034;2023-04-24T07:48:05;13.50;99.90
25058;DHT22;13057;50.978;11.034;2023-04-24T07:50:31;13.50;99.90
25058;DHT22;13057;50.978;11.034;2023-04-24T07:52:57;13.70;99.90
25058;DHT22;13057;50.978;11.034;2023-04-24T07:55:23;13.70;99.90
25058;DHT22;13057;50.978;11.034;2023-04-24T07:57:49;13.90;99.90
25058;DHT22;13057;50.978;11.034;2023-04-24T08:00:16;13.80;99.90
25058;DHT22;13057;50.978;11.034;2023-04-24T08:02:41;13.80;99.90
25058;DHT22;13057;50.978;11.034;2023-04-24T08:05:08;13.80;99.90
25058;DHT22;13057;50.978;11.034;2023-04-24T08:07:33;13.80;99.90
25058;DHT22;13057;50.978;11.034;2023-04-24T08:10:01;13.80;99.90
25058;DHT22;13057;50.978;11.034;2023-04-24T08:12:29;14.00;99.90
25058;DHT22;13057;50.978;11.034;2023-04-24T08:14:55;14.00;99.50
25058;DHT22;13057;50.978;11.034;2023-04-24T08:17:21;14.10;99.10
25058;DHT22;13057;50.978;11.034;2023-04-24T08:19:47;14.00;98.70
25058;DHT22;13057;50.978;11.034;2023-04-24T08:22:14;14.20;99.90
25058;DHT22;13057;50.978;11.034;2023-04-24T08:24:40;14.30;99.90
25058;DHT22;13057;50.978;11.034;2023-04-24T08:27:07;14.30;98.30
25058;DHT22;13057;50.978;11.034;2023-04-24T08:29:36;14.30;97.30
25058;DHT22;13057;50.978;11.034;2023-04-24T08:32:03;14.30;98.20
25058;DHT22;13057;50.978;11.034;2023-04-24T08:34:29;14.30;95.90
25058;DHT22;13057;50.978;11.034;2023-04-24T08:36:54;14.20;97.30
25058;DHT22;13057;50.978;11.034;2023-04-24T08:39:20;14.20;96.20
25058;DHT22;13057;50.978;11.034;2023-04-24T08:41:48;14.20;94.90
25058;DHT22;13057;50.978;11.034;2023-04-24T08:44:15;14.10;95.00
25058;DHT22;13057;50.978;11.034;2023-04-24T08:46:43;14.30;96.80
25058;DHT22;13057;50.978;11.034;2023-04-24T08:49:14;14.50;95.20
25058;DHT22;13057;50.978;11.034;2023-04-24T08:51:42;14.50;94.40
25058;DHT22;13057;50.978;11.034;2023-04-24T08:54:08;14.40;94.20
25058;DHT22;13057;50.978;11.034;2023-04-24T08:56:35;14.40;94.90
25058;DHT22;13057;50.978;11.034;2023-04-24T08:59:06;14.60;95.50
25058;DHT22;13057;50.978;11.034;2023-04-24T09:01:32;14.50;94.70
25058;DHT22;13057;50.978;11.034;2023-04-24T09:04:02;14.70;95.00
25058;DHT22;13057;50.978;11.034;2023-04-24T09:06:30;14.60;94.00
25058;DHT22;13057;50.978;11.034;2023-04-24T09:09:00;14.50;92.80
25058;DHT22;13057;50.978;11.034;2023-04-24T09:11:27;14.60;93.20
25058;DHT22;13057;50.978;11.034;2023-04-24T09:13:54;14.60;93.30
25058;DHT22;13057;50.978;11.034;2023-04-24T09:16:20;14.70;93.00
25058;DHT22;13057;50.978;11.034;2023-04-24T09:18:48;14.80;93.10
25058;DHT22;13057;50.978;11.034;2023-04-24T09:21:14;14.80;91.60
25058;DHT22;13057;50.978;11.034;2023-04-24T09:23:40;14.90;95.10
25058;DHT22;13057;50.978;11.034;2023-04-24T09:26:09;15.30;94.10
25058;DHT22;13057;50.978;11.034;2023-04-24T09:28:37;15.30;93.10
25058;DHT22;13057;50.978;11.034;2023-04-24T09:31:12;15.50;97.70
25058;DHT22;13057;50.978;11.034;2023-04-24T09:33:40;15.60;94.30
25058;DHT22;13057;50.978;11.034;2023-04-24T09:36:06;15.60;94.80
25058;DHT22;13057;50.978;11.034;2023-04-24T09:38:36;15.70;95.60
25058;DHT22;13057;50.978;11.034;2023-04-24T09:41:05;15.80;95.00
25058;DHT22;13057;50.978;11.034;2023-04-24T09:43:31;15.70;92.30
25058;DHT22;13057;50.978;11.034;2023-04-24T09:45:59;15.60;91.80
25058;DHT22;13057;50.978;11.034;2023-04-24T09:48:33;15.80;92.40
25058;DHT22;13057;50.978;11.034;2023-04-24T09:51:01;15.90;92.30
25058;DHT22;13057;50.978;11.034;2023-04-24T09:53:29;16.10;92.00
25058;DHT22;13057;50.978;11.034;2023-04-24T09:55:55;16.40;95.80
25058;DHT22;13057;50.978;11.034;2023-04-24T09:58:25;16.70;93.70
25058;DHT22;13057;50.978;11.034;2023-04-24T10:00:55;16.60;90.30
25058;DHT22;13057;50.978;11.034;2023-04-24T10:03:26;16.60;90.90
25058;DHT22;13057;50.978;11.034;2023-04-24T10:05:53;16.50;90.20
25058;DHT22;13057;50.978;11.034;2023-04-24T10:08:20;16.50;93.00
25058;DHT22;13057;50.978;11.034;2023-04-24T10:10:46;16.40;88.20
25058;DHT22;13057;50.978;11.034;2023-04-24T10:13:14;16.60;90.40
25058;DHT22;13057;50.978;11.034;2023-04-24T10:15:41;16.90;94.00
25058;DHT22;13057;50.978;11.034;2023-04-24T10:18:08;17.00;92.80
25058;DHT22;13057;50.978;11.034;2023-04-24T10:20:36;17.00;87.60
25058;DHT22;13057;50.978;11.034;2023-04-24T10:23:05;16.80;88.60
25058;DHT22;13057;50.978;11.034;2023-04-24T10:25:32;16.90;89.00
25058;DHT22;13057;50.978;11.034;2023-04-24T10:27:59;16.90;88.40
25058;DHT22;13057;50.978;11.034;2023-04-24T10:30:28;17.00;88.10
25058;DHT22;13057;50.978;11.034;2023-04-24T10:32:55;17.10;89.20
25058;DHT22;13057;50.978;11.034;2023-04-24T10:35:22;17.00;85.10
25058;DHT22;13057;50.978;11.034;2023-04-24T10:37:57;17.00;89.80
25058;DHT22;13057;50.978;11.034;2023-04-24T10:40:30;17.00;87.70
25058;DHT22;13057;50.978;11.034;2023-04-24T10:42:56;17.00;86.30
25058;DHT22;13057;50.978;11.034;2023-04-24T10:45:24;16.90;90.10
25058;DHT22;13057;50.978;11.034;2023-04-24T10:48:02;17.40;94.20
25058;DHT22;13057;50.978;11.034;2023-04-24T10:50:30;17.40;85.40
25058;DHT22;13057;50.978;11.034;2023-04-24T10:53:19;17.20;85.40
25058;DHT22;13057;50.978;11.034;2023-04-24T10:55:49;17.10;84.90
25058;DHT22;13057;50.978;11.034;2023-04-24T10:58:16;17.00;90.20
25058;DHT22;13057;50.978;11.034;2023-04-24T11:00:48;16.90;84.00
25058;DHT22;13057;50.978;11.034;2023-04-24T11:03:26;16.90;87.70
25058;DHT22;13057;50.978;11.034;2023-04-24T11:08:28;17.10;85.10
25058;DHT22;13057;50.978;11.034;2023-04-24T11:11:07;17.10;85.10
25058;DHT22;13057;50.978;11.034;2023-04-24T11:14:01;17.10;85.40
25058;DHT22;13057;50.978;11.034;2023-04-24T11:16:30;17.40;87.10
25058;DHT22;13057;50.978;11.034;2023-04-24T11:19:02;17.40;89.20
25058;DHT22;13057;50.978;11.034;2023-04-24T11:21:33;17.60;91.20
25058;DHT22;13057;50.978;11.034;2023-04-24T11:24:26;17.60;89.20
25058;DHT22;13057;50.978;11.034;2023-04-24T11:26:56;17.50;88.60
25058;DHT22;13057;50.978;11.034;2023-04-24T11:29:22;17.40;88.90
25058;DHT22;13057;50.978;11.034;2023-04-24T11:31:49;17.40;86.60
25058;DHT22;13057;50.978;11.034;2023-04-24T11:34:17;17.40;89.10
25058;DHT22;13057;50.978;11.034;2023-04-24T11:36:46;17.50;83.50
25058;DHT22;13057;50.978;11.034;2023-04-24T11:39:13;17.30;83.20
25058;DHT22;13057;50.978;11.034;2023-04-24T11:41:39;17.10;83.70
25058;DHT22;13057;50.978;11.034;2023-04-24T11:44:07;17.10;83.80
25058;DHT22;13057;50.978;11.034;2023-04-24T11:46:34;17.00;86.60
25058;DHT22;13057;50.978;11.034;2023-04-24T11:49:00;17.00;83.60
25058;DHT22;13057;50.978;11.034;2023-04-24T11:51:28;17.00;86.60
25058;DHT22;13057;50.978;11.034;2023-04-24T11:53:55;17.30;91.50
25058;DHT22;13057;50.978;11.034;2023-04-24T11:56:23;17.30;90.90
25058;DHT22;13057;50.978;11.034;2023-04-24T11:58:52;17.10;87.50
25058;DHT22;13057;50.978;11.034;2023-04-24T12:01:19;17.30;90.20
25058;DHT22;13057;50.978;11.034;2023-04-24T12:03:50;17.30;91.70
25058;DHT22;13057;50.978;11.034;2023-04-24T12:06:17;17.10;86.40
25058;DHT22;13057;50.978;11.034;2023-04-24T12:08:46;17.10;92.70
25058;DHT22;13057;50.978;11.034;2023-04-24T12:11:15;17.40;93.10
25058;DHT22;13057;50.978;11.034;2023-04-24T12:13:42;17.40;87.40
25058;DHT22;13057;50.978;11.034;2023-04-24T12:16:07;17.30;91.10
25058;DHT22;13057;50.978;11.034;2023-04-24T12:18:33;17.70;93.30
25058;DHT22;13057;50.978;11.034;2023-04-24T12:21:16;17.80;90.10
25058;DHT22;13057;50.978;11.034;2023-04-24T12:23:44;17.60;90.60
25058;DHT22;13057;50.978;11.034;2023-04-24T12:26:11;17.20;85.70
25058;DHT22;13057;50.978;11.034;2023-04-24T12:28:39;16.90;86.10
25058;DHT22;13057;50.978;11.034;2023-04-24T12:31:06;17.10;91.70
25058;DHT22;13057;50.978;11.034;2023-04-24T12:33:33;17.00;87.70
25058;DHT22;13057;50.978;11.034;2023-04-24T12:36:00;16.90;87.80
25058;DHT22;13057;50.978;11.034;2023-04-24T12:38:27;16.70;86.60
25058;DHT22;13057;50.978;11.034;2023-04-24T12:41:06;16.70;86.80
25058;DHT22;13057;50.978;11.034;2023-04-24T12:43:32;16.70;90.20
25058;DHT22;13057;50.978;11.034;2023-04-24T12:45:58;16.90;89.90
25058;DHT22;13057;50.978;11.034;2023-04-24T12:48:26;16.80;89.40
25058;DHT22;13057;50.978;11.034;2023-04-24T12:50:52;16.50;87.20
25058;DHT22;13057;50.978;11.034;2023-04-24T12:53:18;16.50;94.00
25058;DHT22;13057;50.978;11.034;2023-04-24T12:55:44;17.00;95.90
25058;DHT22;13057;50.978;11.034;2023-04-24T12:58:10;16.90;90.80
25058;DHT22;13057;50.978;11.034;2023-04-24T13:00:36;16.50;91.50
25058;DHT22;13057;50.978;11.034;2023-04-24T13:03:04;16.40;92.80
25058;DHT22;13057;50.978;11.034;2023-04-24T13:05:30;16.30;92.30
25058;DHT22;13057;50.978;11.034;2023-04-24T13:07:57;16.30;91.20
25058;DHT22;13057;50.978;11.034;2023-04-24T13:10:23;16.40;94.90
25058;DHT22;13057;50.978;11.034;2023-04-24T13:12:49;16.50;94.20
25058;DHT22;13057;50.978;11.034;2023-04-24T13:15:15;16.70;94.10
25058;DHT22;13057;50.978;11.034;2023-04-24T13:17:41;16.80;92.90
25058;DHT22;13057;50.978;11.034;2023-04-24T13:20:07;16.70;90.80
25058;DHT22;13057;50.978;11.034;2023-04-24T13:22:33;16.60;91.30
25058;DHT22;13057;50.978;11.034;2023-04-24T13:24:59;16.80;92.30
25058;DHT22;13057;50.978;11.034;2023-04-24T13:27:25;16.80;91.70
25058;DHT22;13057;50.978;11.034;2023-04-24T13:29:51;16.70;90.50
25058;DHT22;13057;50.978;11.034;2023-04-24T13:32:17;16.60;92.70
25058;DHT22;13057;50.978;11.034;2023-04-24T13:34:43;16.30;91.30
25058;DHT22;13057;50.978;11.034;2023-04-24T13:37:09;16.10;91.20
25058;DHT22;13057;50.978;11.034;2023-04-24T13:39:35;15.90;91.60
25058;DHT22;13057;50.978;11.034;2023-04-24T13:42:00;15.90;94.10
25058;DHT22;13057;50.978;11.034;2023-04-24T13:44:26;16.00;92.20
25058;DHT22;13057;50.978;11.034;2023-04-24T13:46:54;16.00;93.30
25058;DHT22;13057;50.978;11.034;2023-04-24T13:49:23;16.00;91.90
25058;DHT22;13057;50.978;11.034;2023-04-24T13:51:51;16.10;91.60
25058;DHT22;13057;50.978;11.034;2023-04-24T13:54:17;15.90;91.60
25058;DHT22;13057;50.978;11.034;2023-04-24T13:56:43;16.00;95.10
25058;DHT22;13057;50.978;11.034;2023-04-24T13:59:09;16.10;95.70
25058;DHT22;13057;50.978;11.034;2023-04-24T14:01:35;16.10;96.20
25058;DHT22;13057;50.978;11.034;2023-04-24T14:04:01;16.70;98.20
25058;DHT22;13057;50.978;11.034;2023-04-24T14:06:27;16.60;95.30
25058;DHT22;13057;50.978;11.034;2023-04-24T14:08:53;16.50;95.40
25058;DHT22;13057;50.978;11.034;2023-04-24T14:11:19;16.10;95.00
25058;DHT22;13057;50.978;11.034;2023-04-24T14:13:45;15.80;94.20
25058;DHT22;13057;50.978;11.034;2023-04-24T14:16:11;15.60;94.50
25058;DHT22;13057;50.978;11.034;2023-04-24T14:18:38;15.50;95.30
25058;DHT22;13057;50.978;11.034;2023-04-24T14:21:04;15.40;94.50
25058;DHT22;13057;50.978;11.034;2023-04-24T14:23:30;15.20;93.20
25058;DHT22;13057;50.978;11.034;2023-04-24T14:25:57;15.10;93.70
25058;DHT22;13057;50.978;11.034;2023-04-24T14:28:23;15.20;93.90
25058;DHT22;13057;50.978;11.034;2023-04-24T14:30:49;15.50;97.50
25058;DHT22;13057;50.978;11.034;2023-04-24T14:33:16;15.60;94.10
25058;DHT22;13057;50.978;11.034;2023-04-24T14:35:42;15.40;93.10
25058;DHT22;13057;50.978;11.034;2023-04-24T14:38:08;15.50;96.20
25058;DHT22;13057;50.978;11.034;2023-04-24T14:40:34;15.50;93.30
25058;DHT22;13057;50.978;11.034;2023-04-24T14:43:01;15.40;95.80
25058;DHT22;13057;50.978;11.034;2023-04-24T14:45:27;15.40;92.80
25058;DHT22;13057;50.978;11.034;2023-04-24T14:47:53;15.30;93.60
25058;DHT22;13057;50.978;11.034;2023-04-24T14:50:20;15.40;94.40
25058;DHT22;13057;50.978;11.034;2023-04-24T14:52:46;15.30;93.20
25058;DHT22;13057;50.978;11.034;2023-04-24T14:55:12;15.40;93.50
25058;DHT22;13057;50.978;11.034;2023-04-24T14:57:39;15.30;94.30
25058;DHT22;13057;50.978;11.034;2023-04-24T15:00:06;15.30;94.20
25058;DHT22;13057;50.978;11.034;2023-04-24T15:02:34;15.30;93.20
25058;DHT22;13057;50.978;11.034;2023-04-24T15:05:03;15.30;93.30
25058;DHT22;13057;50.978;11.034;2023-04-24T15:07:29;15.20;93.10
25058;DHT22;13057;50.978;11.034;2023-04-24T15:09:56;15.10;93.40
25058;DHT22;13057;50.978;11.034;2023-04-24T15:12:22;15.00;94.60
25058;DHT22;13057;50.978;11.034;2023-04-24T15:14:48;15.00;93.30
25058;DHT22;13057;50.978;11.034;2023-04-24T15:17:14;15.00;93.60